Time;durP1;ratioP1;P1;durP2;ratioP2;P2;SDS_P1;SDS_P2;PMS_P1;PMS_P2;Temp;Humidity;BMP_temperature;BMP_pressure;BME280_temperature;BME280_humidity;BME280_pressure;Samples;Min_cycle;Max_cycle;Signal;HPM_P1;HPM_P2
2023/01/31 00:01:09;;;;;;;16.92;1.20;;;3.00;99.90;;;;;;5052327;28;20060;-89
2023/01/31 00:03:34;;;;;;;18.30;1.27;;;3.00;99.90;;;;;;5051228;28;20022;-89
2023/01/31 00:06:16;;;;;;;11.10;1.33;;;2.90;99.90;;;;;;5050704;28;20029;-88
2023/01/31 00:08:42;;;;;;;18.52;1.42;;;2.90;99.90;;;;;;5052827;28;20446;-89
2023/01/31 00:11:09;;;;;;;29.13;2.03;;;2.90;99.90;;;;;;5052701;28;20033;-89
2023/01/31 00:13:35;;;;;;;18.00;1.45;;;2.90;99.90;;;;;;5052270;28;20053;-89
2023/01/31 00:16:01;;;;;;;13.73;1.80;;;2.90;99.90;;;;;;5047796;28;20030;-89
2023/01/31 00:18:26;;;;;;;18.42;1.63;;;2.90;99.90;;;;;;5049592;28;20021;-88
2023/01/31 00:20:52;;;;;;;18.00;1.98;;;2.90;99.90;;;;;;5052691;28;20034;-89
2023/01/31 00:23:17;;;;;;;17.52;1.85;;;2.90;99.90;;;;;;5055456;28;20576;-89
2023/01/31 00:25:43;;;;;;;24.55;2.20;;;2.90;99.90;;;;;;5055464;28;20083;-88
2023/01/31 00:28:08;;;;;;;15.73;1.58;;;2.80;99.90;;;;;;5055559;28;20111;-88
2023/01/31 00:30:34;;;;;;;14.45;1.63;;;2.80;99.90;;;;;;5056269;28;20120;-88
2023/01/31 00:32:59;;;;;;;17.20;1.55;;;2.80;99.90;;;;;;5049258;28;20072;-88
2023/01/31 00:35:25;;;;;;;14.52;1.90;;;2.70;99.90;;;;;;5047860;28;20457;-89
2023/01/31 00:37:50;;;;;;;15.52;1.85;;;2.80;99.90;;;;;;5047212;28;20025;-89
2023/01/31 00:40:16;;;;;;;20.45;1.73;;;2.70;99.90;;;;;;5056301;28;20489;-88
2023/01/31 00:42:43;;;;;;;12.57;1.33;;;2.80;99.90;;;;;;5040865;28;20025;-88
2023/01/31 00:45:09;;;;;;;11.98;1.17;;;2.70;99.90;;;;;;5053608;28;20029;-88
2023/01/31 00:47:35;;;;;;;18.73;1.90;;;2.70;99.90;;;;;;5055444;28;20021;-88
2023/01/31 00:50:00;;;;;;;16.90;1.80;;;2.70;99.90;;;;;;5056076;28;20166;-88
2023/01/31 00:52:26;;;;;;;19.30;1.48;;;2.70;99.90;;;;;;5055455;28;20087;-88
2023/01/31 00:54:51;;;;;;;14.52;1.58;;;2.70;99.90;;;;;;5055402;28;20033;-88
2023/01/31 00:57:17;;;;;;;19.90;1.65;;;2.60;99.90;;;;;;5055246;28;20021;-89
2023/01/31 00:59:42;;;;;;;14.45;1.23;;;2.60;99.90;;;;;;5054875;28;20128;-89
2023/01/31 01:02:08;;;;;;;12.73;1.33;;;2.60;99.90;;;;;;5055089;28;20059;-89
2023/01/31 01:04:33;;;;;;;17.70;1.10;;;2.60;99.90;;;;;;5055555;28;20035;-88
2023/01/31 01:06:59;;;;;;;15.45;1.27;;;2.60;99.90;;;;;;5055454;28;20374;-89
2023/01/31 01:09:25;;;;;;;14.63;1.70;;;2.60;99.90;;;;;;5055312;28;20027;-88
2023/01/31 01:11:50;;;;;;;10.40;1.05;;;2.60;99.90;;;;;;5055778;28;20017;-89
2023/01/31 01:14:16;;;;;;;12.10;1.08;;;2.60;99.90;;;;;;5054242;28;20554;-89
2023/01/31 01:16:41;;;;;;;17.67;1.17;;;2.60;99.90;;;;;;5053111;28;20143;-88
2023/01/31 01:19:11;;;;;;;19.63;1.70;;;2.60;99.90;;;;;;5056299;28;20083;-89
2023/01/31 01:21:38;;;;;;;12.80;1.77;;;2.50;99.90;;;;;;5054411;28;20078;-88
2023/01/31 01:24:05;;;;;;;18.40;1.88;;;2.50;99.90;;;;;;5049081;28;20033;-88
2023/01/31 01:26:32;;;;;;;19.20;1.40;;;2.40;99.90;;;;;;5043300;28;20470;-88
2023/01/31 01:28:59;;;;;;;11.68;1.55;;;2.40;99.90;;;;;;5049133;28;20033;-88
2023/01/31 01:31:29;;;;;;;12.32;1.25;;;2.40;99.90;;;;;;5054206;28;20029;-89
2023/01/31 01:34:01;;;;;;;14.25;1.30;;;2.40;99.90;;;;;;5053762;28;20445;-88
2023/01/31 01:36:27;;;;;;;14.88;1.88;;;2.30;99.90;;;;;;5054101;28;20151;-89
2023/01/31 01:38:53;;;;;;;17.92;1.60;;;2.40;99.90;;;;;;5052623;28;20041;-89
2023/01/31 01:41:20;;;;;;;20.42;2.92;;;2.40;99.90;;;;;;5053487;28;20033;-90
2023/01/31 01:43:51;;;;;;;26.70;1.83;;;2.40;99.90;;;;;;5049534;28;20057;-89
2023/01/31 01:46:32;;;;;;;18.40;1.20;;;2.40;99.90;;;;;;5034111;28;20474;-88
2023/01/31 01:49:11;;;;;;;17.00;1.35;;;2.40;99.90;;;;;;5034837;28;20042;-88
2023/01/31 01:51:37;;;;;;;15.35;1.52;;;2.50;99.90;;;;;;5050672;28;20075;-88
2023/01/31 01:54:11;;;;;;;23.85;1.42;;;2.50;99.90;;;;;;5053156;28;20111;-89
2023/01/31 01:56:40;;;;;;;21.67;1.10;;;2.60;99.90;;;;;;5054064;28;20489;-88
2023/01/31 01:59:17;;;;;;;14.02;1.10;;;2.60;99.90;;;;;;5051115;28;20053;-89
2023/01/31 02:01:45;;;;;;;14.73;1.67;;;2.60;99.90;;;;;;5053812;28;20032;-88
2023/01/31 02:04:17;;;;;;;15.98;2.00;;;2.60;99.90;;;;;;5052179;28;20033;-89
2023/01/31 02:28:01;;;;;;;14.70;1.52;;;2.80;99.90;;;;;;5025547;28;1108393;-88
2023/01/31 02:30:32;;;;;;;21.95;1.83;;;2.90;99.90;;;;;;5057353;28;20032;-89
2023/01/31 02:33:42;;;;;;;13.77;1.47;;;2.80;99.90;;;;;;5056405;28;20028;-88
2023/01/31 02:36:26;;;;;;;18.80;1.95;;;2.80;99.90;;;;;;5043176;28;20037;-88
2023/01/31 02:39:26;;;;;;;19.98;1.98;;;2.80;99.90;;;;;;5065939;28;20029;-89
2023/01/31 02:42:24;;;;;;;16.55;1.60;;;2.80;99.90;;;;;;5022891;28;20029;-89
2023/01/31 02:45:26;;;;;;;11.25;1.85;;;2.90;99.90;;;;;;5050796;28;20036;-88
2023/01/31 02:48:07;;;;;;;18.73;2.00;;;3.00;99.90;;;;;;5056336;28;20111;-89
2023/01/31 02:51:00;;;;;;;17.13;2.35;;;3.00;99.90;;;;;;5055001;28;20024;-89
2023/01/31 02:53:33;;;;;;;19.02;2.28;;;3.10;99.90;;;;;;5055445;28;20025;-89
2023/01/31 02:56:17;;;;;;;20.08;2.83;;;3.10;99.90;;;;;;5054700;28;20029;-89
2023/01/31 02:58:48;;;;;;;16.30;3.67;;;3.20;99.90;;;;;;5043396;28;20029;-89
2023/01/31 03:01:19;;;;;;;17.30;3.28;;;3.30;99.90;;;;;;5056572;28;20506;-89
2023/01/31 03:03:45;;;;;;;16.40;3.38;;;3.30;99.90;;;;;;5056774;28;20464;-89
2023/01/31 03:06:23;;;;;;;22.73;2.88;;;3.40;99.90;;;;;;5056990;28;20077;-89
2023/01/31 03:09:23;;;;;;;17.85;3.42;;;3.40;99.90;;;;;;5056422;28;20528;-88
2023/01/31 03:12:04;;;;;;;22.55;3.60;;;3.50;99.90;;;;;;5056496;28;20035;-89
2023/01/31 03:14:42;;;;;;;21.75;4.10;;;3.50;99.90;;;;;;5073831;28;20047;-89
2023/01/31 03:17:31;;;;;;;25.02;4.70;;;3.50;99.90;;;;;;5055805;28;20025;-89
2023/01/31 03:20:13;;;;;;;29.27;4.07;;;3.50;99.90;;;;;;5055859;28;20546;-89
2023/01/31 03:22:50;;;;;;;28.02;5.18;;;3.60;99.90;;;;;;5056505;28;20020;-89
2023/01/31 03:25:20;;;;;;;25.40;3.70;;;3.60;99.90;;;;;;5056388;28;20056;-89
2023/01/31 03:27:55;;;;;;;31.40;5.18;;;3.60;99.90;;;;;;5056503;28;20040;-89
2023/01/31 03:30:31;;;;;;;22.38;5.10;;;3.70;99.90;;;;;;5055932;28;20016;-88
2023/01/31 03:33:02;;;;;;;25.48;4.65;;;3.70;99.90;;;;;;5041664;28;20063;-89
2023/01/31 03:35:32;;;;;;;19.10;4.85;;;3.80;99.90;;;;;;5055660;28;20080;-89
2023/01/31 03:38:10;;;;;;;22.08;4.88;;;3.80;99.90;;;;;;5070569;28;20032;-89
2023/01/31 03:41:04;;;;;;;23.42;4.82;;;3.80;99.90;;;;;;5052451;28;20091;-90
2023/01/31 03:43:41;;;;;;;32.42;6.15;;;3.80;99.90;;;;;;5056662;28;20416;-90
2023/01/31 03:46:16;;;;;;;22.48;6.35;;;3.90;99.90;;;;;;5056228;28;20070;-89
2023/01/31 03:48:45;;;;;;;20.45;5.45;;;3.90;99.90;;;;;;5065933;28;20036;-88
2023/01/31 03:51:21;;;;;;;23.40;5.13;;;3.90;99.90;;;;;;5054482;28;20028;-89
2023/01/31 03:53:54;;;;;;;23.27;6.05;;;3.90;99.90;;;;;;5053499;28;20114;-90
2023/01/31 03:56:24;;;;;;;22.20;5.68;;;3.90;99.90;;;;;;5056009;28;20032;-89
2023/01/31 03:58:57;;;;;;;24.17;6.10;;;3.90;99.90;;;;;;5059808;28;20020;-90
2023/01/31 04:01:26;;;;;;;17.90;5.38;;;3.90;99.90;;;;;;5040328;28;20389;-87
2023/01/31 04:03:56;;;;;;;25.05;6.20;;;3.80;99.90;;;;;;5058729;28;20123;-89
2023/01/31 04:06:22;;;;;;;23.23;6.00;;;3.90;99.90;;;;;;5040388;28;20032;-89
2023/01/31 04:08:48;;;;;;;22.63;6.22;;;3.90;99.90;;;;;;5058703;28;20004;-89
2023/01/31 04:11:14;;;;;;;28.90;7.63;;;3.80;99.90;;;;;;5055143;28;20133;-89
2023/01/31 04:13:41;;;;;;;26.88;6.35;;;3.80;99.90;;;;;;5056658;28;20021;-89
2023/01/31 04:16:07;;;;;;;35.33;7.35;;;3.90;99.90;;;;;;5045586;28;20033;-89
2023/01/31 04:18:32;;;;;;;28.60;7.60;;;3.80;99.90;;;;;;5059744;28;20089;-89
2023/01/31 04:20:58;;;;;;;28.13;7.32;;;3.80;99.90;;;;;;5058314;28;20028;-89
2023/01/31 04:23:25;;;;;;;24.88;6.35;;;3.80;99.90;;;;;;5059726;28;20115;-89
2023/01/31 04:25:53;;;;;;;29.30;7.45;;;3.80;99.90;;;;;;5059198;28;20043;-89
2023/01/31 04:28:19;;;;;;;24.10;6.90;;;3.80;99.90;;;;;;5057065;28;20692;-89
2023/01/31 04:30:45;;;;;;;28.80;7.82;;;3.80;99.90;;;;;;5040009;28;20029;-89
2023/01/31 04:33:10;;;;;;;31.10;7.68;;;3.80;99.90;;;;;;5056638;28;20021;-89
2023/01/31 04:35:39;;;;;;;31.15;7.78;;;3.80;99.90;;;;;;5059250;28;20031;-89
2023/01/31 04:38:05;;;;;;;29.17;7.65;;;3.80;99.90;;;;;;5053400;28;20024;-89
2023/01/31 04:40:30;;;;;;;25.48;8.10;;;3.80;99.90;;;;;;5057213;28;20036;-87
2023/01/31 04:42:56;;;;;;;26.45;7.47;;;3.80;99.90;;;;;;5059600;28;20020;-90
2023/01/31 04:45:21;;;;;;;27.08;7.63;;;3.70;99.90;;;;;;5059467;28;20024;-89
2023/01/31 04:47:47;;;;;;;26.15;7.68;;;3.70;99.90;;;;;;5059464;28;20020;-89
2023/01/31 04:50:12;;;;;;;27.60;7.85;;;3.70;99.90;;;;;;5044760;28;20025;-89
2023/01/31 04:52:38;;;;;;;31.05;8.25;;;3.60;99.90;;;;;;5047522;28;20108;-88
2023/01/31 04:55:04;;;;;;;26.25;8.13;;;3.60;99.90;;;;;;5055580;28;20132;-89
2023/01/31 04:57:29;;;;;;;23.58;7.70;;;3.60;99.90;;;;;;5049736;28;20021;-89
2023/01/31 04:59:55;;;;;;;30.83;8.10;;;3.60;99.90;;;;;;5051406;28;20068;-89
2023/01/31 05:02:22;;;;;;;25.70;7.75;;;3.60;99.90;;;;;;5053254;28;20071;-89
2023/01/31 05:04:47;;;;;;;25.27;8.57;;;3.60;99.90;;;;;;5057666;28;20032;-89
2023/01/31 05:07:13;;;;;;;25.23;8.82;;;3.60;99.90;;;;;;5059261;28;20024;-89
2023/01/31 05:09:41;;;;;;;26.30;9.05;;;3.60;99.90;;;;;;5054908;28;20025;-88
2023/01/31 05:12:07;;;;;;;29.75;9.70;;;3.60;99.90;;;;;;5048576;28;20020;-90
2023/01/31 05:14:33;;;;;;;31.65;9.90;;;3.70;99.90;;;;;;5059083;28;20541;-89
2023/01/31 05:16:58;;;;;;;24.60;9.30;;;3.70;99.90;;;;;;5055983;28;20108;-89
2023/01/31 05:19:24;;;;;;;30.33;9.27;;;3.70;99.90;;;;;;5052551;28;20048;-90
2023/01/31 05:21:59;;;;;;;32.50;9.48;;;3.70;99.90;;;;;;5057745;28;20032;-88
2023/01/31 05:24:27;;;;;;;38.22;11.27;;;3.80;99.90;;;;;;5055390;28;20032;-90
2023/01/31 05:26:57;;;;;;;30.85;10.07;;;3.80;99.90;;;;;;5053839;28;20048;-89
2023/01/31 05:29:28;;;;;;;30.58;9.52;;;3.80;99.90;;;;;;5056090;28;20024;-90
2023/01/31 05:31:56;;;;;;;38.42;10.38;;;3.80;99.90;;;;;;5056466;28;20165;-89
2023/01/31 05:34:24;;;;;;;29.83;10.02;;;3.80;99.90;;;;;;5053450;28;20555;-89
2023/01/31 05:36:50;;;;;;;37.03;10.20;;;3.90;99.90;;;;;;5066488;28;20470;-89
2023/01/31 05:39:16;;;;;;;40.95;10.45;;;3.90;99.90;;;;;;5055071;28;20040;-88
2023/01/31 05:41:42;;;;;;;35.70;10.10;;;3.90;99.90;;;;;;5054130;28;20028;-88
2023/01/31 05:44:07;;;;;;;29.55;10.23;;;3.90;99.90;;;;;;5056274;28;20028;-89
2023/01/31 05:46:33;;;;;;;34.30;9.73;;;4.00;99.90;;;;;;5049162;28;20428;-90
2023/01/31 05:48:59;;;;;;;40.70;11.35;;;4.00;99.90;;;;;;5046197;28;20016;-90
2023/01/31 05:51:24;;;;;;;31.85;9.55;;;4.00;99.90;;;;;;5048796;28;20054;-89
2023/01/31 05:53:50;;;;;;;33.45;9.50;;;4.00;99.90;;;;;;5055303;28;20032;-89
2023/01/31 05:56:16;;;;;;;25.08;9.30;;;4.00;99.90;;;;;;5048369;28;20020;-88
2023/01/31 05:58:42;;;;;;;39.70;11.70;;;4.00;99.90;;;;;;5048188;28;20086;-89
2023/01/31 06:01:08;;;;;;;37.60;10.43;;;4.10;99.90;;;;;;5055640;28;20037;-90
2023/01/31 06:03:34;;;;;;;28.20;10.07;;;4.10;99.90;;;;;;5056625;28;20494;-89
2023/01/31 06:05:59;;;;;;;36.97;11.50;;;4.10;99.90;;;;;;5053664;28;20167;-89
2023/01/31 06:08:25;;;;;;;35.60;12.02;;;4.10;99.90;;;;;;5050890;28;20024;-90
2023/01/31 06:10:50;;;;;;;34.30;10.88;;;4.10;99.90;;;;;;5047473;28;20031;-89
2023/01/31 06:13:16;;;;;;;26.23;10.80;;;4.10;99.90;;;;;;5054854;28;20024;-90
2023/01/31 06:15:43;;;;;;;33.38;10.65;;;4.10;99.90;;;;;;5057032;28;20028;-90
2023/01/31 06:18:08;;;;;;;40.15;11.38;;;4.10;99.90;;;;;;5055306;28;20058;-90
2023/01/31 06:20:34;;;;;;;29.88;10.07;;;4.10;99.90;;;;;;5053912;28;20032;-90
2023/01/31 06:23:00;;;;;;;30.23;10.07;;;4.10;99.90;;;;;;5057359;28;20113;-90
2023/01/31 06:25:26;;;;;;;31.30;10.57;;;4.10;99.90;;;;;;5049918;28;20115;-90
2023/01/31 06:27:52;;;;;;;30.27;9.80;;;4.10;99.90;;;;;;5053188;28;20408;-91
2023/01/31 06:30:17;;;;;;;37.17;10.43;;;4.20;99.90;;;;;;5050665;28;20028;-91
2023/01/31 06:32:43;;;;;;;29.38;9.40;;;4.20;99.90;;;;;;5047969;28;20029;-89
2023/01/31 06:35:09;;;;;;;26.80;9.98;;;4.20;99.90;;;;;;5057528;28;20028;-89
2023/01/31 06:37:34;;;;;;;25.77;9.82;;;4.20;99.90;;;;;;5056144;28;20063;-89
2023/01/31 06:40:00;;;;;;;27.40;10.23;;;4.30;99.90;;;;;;5049901;28;20082;-90
2023/01/31 06:42:25;;;;;;;26.08;9.95;;;4.40;99.90;;;;;;5050747;28;20488;-90
2023/01/31 06:44:51;;;;;;;32.65;10.52;;;4.40;99.90;;;;;;5057081;28;20063;-90
2023/01/31 06:47:16;;;;;;;35.92;10.40;;;4.40;99.90;;;;;;5056038;28;20048;-89
2023/01/31 06:49:42;;;;;;;31.83;11.32;;;4.40;99.90;;;;;;5055067;28;20102;-89
2023/01/31 06:52:08;;;;;;;32.78;10.25;;;4.40;99.90;;;;;;5056689;28;20028;-90
2023/01/31 06:54:33;;;;;;;34.50;10.35;;;4.40;99.90;;;;;;5057478;28;20512;-90
2023/01/31 06:56:59;;;;;;;30.30;9.00;;;4.40;99.90;;;;;;5056183;28;20476;-91
2023/01/31 06:59:24;;;;;;;28.20;9.95;;;4.40;99.90;;;;;;5043685;28;20033;-89
2023/01/31 07:01:50;;;;;;;24.42;8.45;;;4.40;99.90;;;;;;5052126;28;20047;-89
2023/01/31 07:04:15;;;;;;;34.63;10.45;;;4.40;99.90;;;;;;5050250;28;20029;-91
2023/01/31 07:06:41;;;;;;;31.20;9.48;;;4.50;99.90;;;;;;5052319;28;20097;-91
2023/01/31 07:09:07;;;;;;;31.70;9.52;;;4.40;99.90;;;;;;5056072;28;20027;-92
2023/01/31 07:11:32;;;;;;;36.97;9.38;;;4.50;99.90;;;;;;5058259;28;20028;-91
2023/01/31 07:13:58;;;;;;;26.63;9.15;;;4.50;99.90;;;;;;5054111;28;20051;-90
2023/01/31 07:16:24;;;;;;;32.17;9.85;;;4.50;99.90;;;;;;5055516;28;20069;-90
2023/01/31 07:18:54;;;;;;;25.23;9.20;;;4.50;99.90;;;;;;5056748;28;20029;-91
2023/01/31 07:21:21;;;;;;;26.38;9.27;;;4.40;99.90;;;;;;5051972;28;20120;-91
2023/01/31 07:23:46;;;;;;;32.88;9.20;;;4.40;99.90;;;;;;5045577;28;20017;-90
2023/01/31 07:26:12;;;;;;;23.70;8.55;;;4.40;99.90;;;;;;5049309;28;20031;-91
2023/01/31 07:28:38;;;;;;;21.60;8.48;;;4.40;99.90;;;;;;5044370;28;20469;-89
2023/01/31 07:31:12;;;;;;;24.25;8.73;;;4.40;99.90;;;;;;5054892;28;20123;-90
2023/01/31 07:33:38;;;;;;;20.20;8.07;;;4.40;99.90;;;;;;5049587;28;20017;-89
2023/01/31 07:36:06;;;;;;;25.73;7.68;;;4.40;99.90;;;;;;5044288;28;20054;-88
2023/01/31 07:38:32;;;;;;;26.13;8.52;;;4.40;99.90;;;;;;5043433;28;20025;-90
2023/01/31 07:40:59;;;;;;;19.60;6.75;;;4.50;99.90;;;;;;5048097;28;20040;-89
2023/01/31 07:43:25;;;;;;;31.85;8.13;;;4.50;99.90;;;;;;5045130;28;20025;-90
2023/01/31 07:45:51;;;;;;;25.67;7.90;;;4.50;99.90;;;;;;5048625;28;20063;-89
2023/01/31 07:48:22;;;;;;;20.30;6.97;;;4.50;99.90;;;;;;5041541;28;20028;-90
2023/01/31 07:50:49;;;;;;;25.00;7.43;;;4.60;99.90;;;;;;5050988;28;20067;-89
2023/01/31 07:53:14;;;;;;;18.52;7.05;;;4.60;99.90;;;;;;5045436;28;20033;-90
2023/01/31 07:55:40;;;;;;;21.85;7.18;;;4.60;99.90;;;;;;5048957;28;20061;-90
2023/01/31 07:58:06;;;;;;;25.70;7.88;;;4.60;99.90;;;;;;5054488;28;20032;-91
2023/01/31 08:03:31;;;;;;;25.27;7.97;;;4.60;99.90;;;;;;5068097;28;20048;-89
2023/01/31 08:05:57;;;;;;;18.70;6.80;;;4.60;99.90;;;;;;5049798;28;20582;-89
2023/01/31 08:08:22;;;;;;;23.75;7.03;;;4.60;99.90;;;;;;5055555;28;20082;-89
2023/01/31 08:10:48;;;;;;;26.25;7.15;;;4.60;99.90;;;;;;5034920;28;20025;-89
2023/01/31 08:13:13;;;;;;;29.02;6.75;;;4.70;99.90;;;;;;5048402;28;20036;-89
2023/01/31 08:15:39;;;;;;;19.25;7.15;;;4.70;99.90;;;;;;5055241;28;20034;-89
2023/01/31 08:18:05;;;;;;;21.30;7.10;;;4.80;99.90;;;;;;5060850;28;20115;-89
2023/01/31 08:20:30;;;;;;;28.98;7.40;;;4.80;99.90;;;;;;5044115;28;20477;-90
2023/01/31 08:22:59;;;;;;;28.88;7.70;;;4.80;99.90;;;;;;5050415;28;20021;-90
2023/01/31 08:25:27;;;;;;;18.08;6.70;;;4.90;99.90;;;;;;5049463;28;20055;-90
2023/01/31 08:27:55;;;;;;;36.90;8.18;;;4.90;99.90;;;;;;5047883;28;20049;-90
2023/01/31 08:30:21;;;;;;;25.90;6.55;;;4.90;99.90;;;;;;5046660;28;20025;-89
2023/01/31 08:32:46;;;;;;;21.85;5.70;;;5.00;99.90;;;;;;5049577;28;20027;-90
2023/01/31 08:35:12;;;;;;;28.30;6.30;;;5.00;99.90;;;;;;5047014;28;20024;-90
2023/01/31 08:37:37;;;;;;;22.90;6.45;;;5.00;99.90;;;;;;5049378;28;20032;-90
2023/01/31 08:40:03;;;;;;;28.63;7.03;;;5.10;99.90;;;;;;5048366;28;20147;-89
2023/01/31 08:42:29;;;;;;;20.35;5.95;;;5.10;99.90;;;;;;5043776;28;20149;-89
2023/01/31 08:44:54;;;;;;;21.90;6.72;;;5.10;99.90;;;;;;5044986;28;20028;-90
2023/01/31 08:47:20;;;;;;;17.33;5.25;;;5.20;99.90;;;;;;5061206;28;20093;-89
2023/01/31 08:49:45;;;;;;;24.17;6.43;;;5.20;99.90;;;;;;5047268;28;20036;-89
2023/01/31 08:52:11;;;;;;;23.80;6.35;;;5.20;99.90;;;;;;5052715;28;20122;-90
2023/01/31 08:54:36;;;;;;;22.17;5.93;;;5.30;99.90;;;;;;5054076;28;20028;-91
2023/01/31 08:57:02;;;;;;;34.50;6.00;;;5.30;99.90;;;;;;5045275;28;20116;-91
2023/01/31 08:59:28;;;;;;;16.90;4.93;;;5.40;99.90;;;;;;5054717;28;20066;-91
2023/01/31 09:01:54;;;;;;;24.60;5.72;;;5.50;99.90;;;;;;5052246;28;20550;-91
2023/01/31 09:04:19;;;;;;;22.75;5.68;;;5.50;99.90;;;;;;5053161;28;20024;-90
2023/01/31 09:06:45;;;;;;;20.75;6.32;;;5.50;99.90;;;;;;5050070;28;20024;-90
2023/01/31 09:09:10;;;;;;;22.67;5.28;;;5.60;99.90;;;;;;5048607;28;20036;-91
2023/01/31 09:11:36;;;;;;;19.45;4.95;;;5.60;99.90;;;;;;5050282;28;20476;-91
2023/01/31 09:14:02;;;;;;;18.52;5.10;;;5.60;99.90;;;;;;5048097;28;20074;-90
2023/01/31 09:16:27;;;;;;;30.00;5.25;;;5.70;99.90;;;;;;5047864;28;20029;-91
2023/01/31 09:18:53;;;;;;;19.27;5.72;;;5.70;99.90;;;;;;5051774;28;20288;-91
2023/01/31 09:21:20;;;;;;;20.45;5.28;;;5.80;99.90;;;;;;5038324;28;20040;-92
2023/01/31 09:23:47;;;;;;;19.05;5.05;;;5.80;99.90;;;;;;5041814;28;20726;-91
2023/01/31 09:26:14;;;;;;;21.48;5.60;;;5.90;99.90;;;;;;5052102;28;20391;-91
2023/01/31 09:28:44;;;;;;;21.17;4.97;;;6.00;99.90;;;;;;5058171;28;20139;-91
2023/01/31 09:31:15;;;;;;;16.77;4.50;;;6.00;99.90;;;;;;5039146;28;20021;-91
2023/01/31 09:33:41;;;;;;;18.98;3.83;;;6.00;99.90;;;;;;5054494;28;20033;-92
2023/01/31 09:36:12;;;;;;;20.20;4.72;;;6.00;99.90;;;;;;5044626;28;20143;-91
2023/01/31 09:38:39;;;;;;;24.40;4.45;;;6.10;99.90;;;;;;5041579;28;20025;-91
2023/01/31 09:41:13;;;;;;;22.17;4.22;;;6.10;99.90;;;;;;5056557;28;20573;-90
2023/01/31 09:43:43;;;;;;;25.27;4.38;;;6.10;99.90;;;;;;5052041;28;20021;-91
2023/01/31 09:46:18;;;;;;;19.15;5.15;;;6.10;99.90;;;;;;5038543;28;20029;-91
2023/01/31 09:48:49;;;;;;;18.88;4.93;;;6.10;99.90;;;;;;5039055;28;20484;-91
2023/01/31 09:51:15;;;;;;;22.00;4.38;;;6.10;99.90;;;;;;5056290;28;20404;-92
2023/01/31 09:53:42;;;;;;;20.67;5.13;;;6.10;99.90;;;;;;5058185;28;20024;-91
2023/01/31 09:56:41;;;;;;;20.55;4.28;;;6.10;99.90;;;;;;5049434;28;20123;-91
2023/01/31 09:59:29;;;;;;;21.88;4.97;;;6.10;99.90;;;;;;5052664;28;20029;-92
2023/01/31 10:02:12;;;;;;;15.40;4.38;;;6.20;99.90;;;;;;5051277;28;20085;-91
2023/01/31 10:05:00;;;;;;;16.15;4.43;;;6.20;99.90;;;;;;5052306;28;20107;-91
2023/01/31 10:07:37;;;;;;;14.68;3.95;;;6.20;99.90;;;;;;5061712;28;20047;-92
2023/01/31 10:10:24;;;;;;;18.83;4.25;;;6.30;99.90;;;;;;5038385;28;20170;-93
2023/01/31 10:13:00;;;;;;;15.88;3.97;;;6.20;99.90;;;;;;5044461;28;20020;-91
2023/01/31 10:15:41;;;;;;;17.20;4.72;;;6.20;99.90;;;;;;5056418;28;20123;-92
2023/01/31 10:18:21;;;;;;;20.83;4.32;;;6.30;99.90;;;;;;5058191;28;20024;-89
2023/01/31 10:20:51;;;;;;;22.20;4.60;;;6.30;99.90;;;;;;5039349;28;20052;-90
2023/01/31 10:23:37;;;;;;;16.23;3.75;;;6.30;99.90;;;;;;5052486;28;20039;-90
2023/01/31 10:26:15;;;;;;;22.13;6.00;;;6.30;99.90;;;;;;5041505;28;20027;-90
2023/01/31 10:29:07;;;;;;;18.92;3.90;;;6.30;99.90;;;;;;5050676;28;20379;-91
2023/01/31 10:31:41;;;;;;;17.58;4.28;;;6.40;99.90;;;;;;5028739;28;20033;-91
2023/01/31 10:34:37;;;;;;;19.65;5.03;;;6.40;99.90;;;;;;5046281;28;20034;-91
2023/01/31 10:37:31;;;;;;;13.68;4.07;;;6.50;99.90;;;;;;5040003;28;20036;-91
2023/01/31 10:40:02;;;;;;;31.33;4.70;;;6.50;99.90;;;;;;5030664;28;20087;-91
2023/01/31 10:42:36;;;;;;;22.40;5.03;;;6.50;99.90;;;;;;5053277;28;20029;-90
2023/01/31 10:45:12;;;;;;;13.20;4.78;;;6.50;99.90;;;;;;5050433;28;20489;-90
2023/01/31 10:47:46;;;;;;;14.98;4.05;;;6.60;99.90;;;;;;5051324;28;20021;-91
2023/01/31 10:50:22;;;;;;;25.27;5.53;;;6.60;99.90;;;;;;5047590;28;20029;-90
2023/01/31 10:53:03;;;;;;;23.45;5.78;;;6.60;99.90;;;;;;5045507;28;20068;-89
2023/01/31 10:55:54;;;;;;;19.42;5.82;;;6.70;99.90;;;;;;5038348;28;20121;-91
2023/01/31 10:58:22;;;;;;;22.10;5.30;;;6.80;99.90;;;;;;5041664;28;20043;-89
2023/01/31 11:00:48;;;;;;;18.88;5.75;;;6.90;99.90;;;;;;5053627;28;20028;-90
2023/01/31 11:03:14;;;;;;;24.13;5.82;;;7.00;99.90;;;;;;5050234;28;20445;-90
2023/01/31 11:05:49;;;;;;;18.05;5.53;;;7.10;99.90;;;;;;5044845;28;20178;-90
2023/01/31 11:08:41;;;;;;;11.48;4.93;;;7.20;99.90;;;;;;5050335;28;20071;-91
2023/01/31 11:11:16;;;;;;;16.35;5.03;;;7.20;99.90;;;;;;5036543;28;20051;-91
2023/01/31 11:13:55;;;;;;;22.88;7.47;;;7.20;99.90;;;;;;5050707;28;20046;-90
2023/01/31 11:16:21;;;;;;;21.00;6.80;;;7.20;99.90;;;;;;5038839;28;20115;-91
2023/01/31 11:18:49;;;;;;;17.73;6.05;;;7.30;99.90;;;;;;5041526;28;20107;-90
2023/01/31 11:21:33;;;;;;;20.33;5.95;;;7.30;99.90;;;;;;5042581;28;20029;-90
2023/01/31 11:24:14;;;;;;;26.38;6.82;;;7.30;99.90;;;;;;5053277;28;20028;-91
2023/01/31 11:26:51;;;;;;;22.92;6.50;;;7.30;99.90;;;;;;5051906;28;20053;-90
2023/01/31 11:29:23;;;;;;;25.15;6.03;;;7.30;99.90;;;;;;5048505;28;20067;-90
2023/01/31 11:31:49;;;;;;;17.83;5.70;;;7.30;99.90;;;;;;5048884;28;20083;-90
2023/01/31 11:34:32;;;;;;;18.48;4.88;;;7.30;99.90;;;;;;5053157;28;20029;-91
2023/01/31 11:37:16;;;;;;;18.25;6.38;;;7.30;99.90;;;;;;5052492;28;20091;-90
2023/01/31 11:39:52;;;;;;;15.27;4.63;;;7.40;99.90;;;;;;5054268;28;20032;-90
2023/01/31 11:42:18;;;;;;;12.57;4.72;;;7.40;99.90;;;;;;5047180;28;20071;-91
2023/01/31 11:44:57;;;;;;;21.50;5.95;;;7.40;99.90;;;;;;5041936;28;20096;-90
2023/01/31 11:47:36;;;;;;;17.40;4.35;;;7.50;99.90;;;;;;5051789;28;20021;-90
2023/01/31 11:50:03;;;;;;;15.98;4.18;;;7.50;99.90;;;;;;5055168;28;20064;-89
2023/01/31 11:52:32;;;;;;;16.95;4.40;;;7.50;99.90;;;;;;5044280;28;20016;-92
2023/01/31 11:55:03;;;;;;;25.40;4.63;;;7.50;99.90;;;;;;5036179;28;20025;-90
2023/01/31 11:57:35;;;;;;;14.68;4.25;;;7.50;99.90;;;;;;5048643;28;20031;-91
2023/01/31 12:00:05;;;;;;;25.42;4.88;;;7.50;99.90;;;;;;5044499;28;20133;-90
2023/01/31 12:02:34;;;;;;;18.05;4.10;;;7.60;99.90;;;;;;5047303;28;20067;-89
2023/01/31 12:05:01;;;;;;;22.85;4.30;;;7.60;99.90;;;;;;5051732;28;20021;-91
2023/01/31 12:07:43;;;;;;;18.30;4.53;;;7.60;99.90;;;;;;5050140;28;20044;-89
2023/01/31 12:10:32;;;;;;;21.13;4.55;;;7.60;99.90;;;;;;5051727;28;20030;-90
2023/01/31 12:13:00;;;;;;;21.08;4.47;;;7.50;99.90;;;;;;5036492;28;20035;-91
2023/01/31 12:15:28;;;;;;;21.33;5.30;;;7.50;99.90;;;;;;5052851;28;20116;-91
2023/01/31 12:17:54;;;;;;;19.02;4.20;;;7.50;99.90;;;;;;5049694;28;20059;-91
2023/01/31 12:20:30;;;;;;;18.40;4.75;;;7.50;99.90;;;;;;5054609;28;20124;-91
2023/01/31 12:23:02;;;;;;;24.55;5.18;;;7.40;99.90;;;;;;5046645;28;20564;-89
2023/01/31 12:25:48;;;;;;;19.60;5.40;;;7.40;99.90;;;;;;5054669;28;20024;-90
2023/01/31 12:28:25;;;;;;;15.90;4.47;;;7.40;99.90;;;;;;5041982;28;20049;-91
2023/01/31 12:31:09;;;;;;;14.73;4.35;;;7.30;99.90;;;;;;5039906;28;20120;-91
2023/01/31 12:33:40;;;;;;;14.27;4.95;;;7.20;99.90;;;;;;5063410;28;20033;-91
2023/01/31 12:36:30;;;;;;;23.97;4.93;;;7.20;99.90;;;;;;5042882;28;20121;-92
2023/01/31 12:39:26;;;;;;;19.42;4.78;;;7.20;99.90;;;;;;5053959;28;20041;-92
2023/01/31 12:42:17;;;;;;;26.55;5.35;;;7.10;99.90;;;;;;5045715;28;20029;-92
2023/01/31 12:45:27;;;;;;;18.65;5.30;;;7.10;99.90;;;;;;5049478;28;20070;-92
2023/01/31 12:48:16;;;;;;;13.68;4.45;;;7.10;99.90;;;;;;5019726;28;20040;-91
2023/01/31 12:50:48;;;;;;;13.77;4.32;;;7.10;99.90;;;;;;5000426;28;20123;-91
2023/01/31 12:53:31;;;;;;;21.33;5.18;;;7.20;99.90;;;;;;5055909;28;20029;-92
2023/01/31 12:56:33;;;;;;;18.05;4.75;;;7.20;99.90;;;;;;5050420;28;20025;-91
2023/01/31 12:59:13;;;;;;;13.15;3.50;;;7.20;99.90;;;;;;5043825;28;20028;-93
2023/01/31 13:01:49;;;;;;;18.08;4.78;;;7.30;99.90;;;;;;5042823;28;20115;-92
2023/01/31 13:04:42;;;;;;;13.48;3.58;;;7.30;99.90;;;;;;5050270;28;20046;-92
2023/01/31 13:07:14;;;;;;;12.00;3.10;;;7.30;99.90;;;;;;5049402;28;20377;-92
2023/01/31 13:09:40;;;;;;;16.50;4.18;;;7.20;99.90;;;;;;5045079;28;20074;-92
2023/01/31 13:12:18;;;;;;;14.65;3.55;;;7.20;99.90;;;;;;5047793;28;20036;-93
2023/01/31 13:14:50;;;;;;;17.27;4.68;;;7.20;99.90;;;;;;5052756;28;20070;-91
2023/01/31 13:17:25;;;;;;;15.57;3.97;;;7.20;99.90;;;;;;5069158;28;20024;-92
2023/01/31 13:20:13;;;;;;;9.70;2.70;;;7.20;99.90;;;;;;5053768;28;20492;-91
2023/01/31 13:22:45;;;;;;;20.42;4.50;;;7.20;99.90;;;;;;5060821;28;20031;-94
2023/01/31 13:25:17;;;;;;;16.33;3.00;;;7.20;99.90;;;;;;5041593;28;20028;-92
2023/01/31 13:28:05;;;;;;;15.48;3.85;;;7.20;99.90;;;;;;5040907;28;20053;-92
2023/01/31 13:30:55;;;;;;;12.23;3.65;;;7.30;99.90;;;;;;5055712;28;20036;-93